Sturgeon Bay, Wisconsin
Current Conditions -  °F | °C
As of 8:35 PM on Tuesday 21 Oct 2014 (Local Time) from KSUE Reporting Station
Clear Clear  
Wind Chill: 38°   Ceiling: Unl
Heat Index: 41°   Visibility: 10mi
Dew Point: 30°   Wind: 5mph
Humidity: 65%   Direction: 30°NNE
Pressure: 30.28"   Gusts: NA
Location:  44.84°N, 87.37°W
Report Text: KSUE 220135Z AUTO 03004KT 10SM CLR 05/M01 A3028 RMK AO1
Loading
Personal Weather Stations






























Interactive Weather Map
Tropical Storm Tracking
New forecast layout! Learn more

10-Day Weather Forecast

Advertisements
Track Severe Weather on mobile